sensor_id;sensor_type;location;lat;lon;timestamp;temperature;humidity
10247;DHT22;5168;47.854;7.944;2023-05-28T00:01:00;12.90;99.90
10247;DHT22;5168;47.854;7.944;2023-05-28T00:03:26;13.00;99.90
10247;DHT22;5168;47.854;7.944;2023-05-28T00:05:52;13.00;99.90
10247;DHT22;5168;47.854;7.944;2023-05-28T00:08:18;13.20;99.90
10247;DHT22;5168;47.854;7.944;2023-05-28T00:15:35;13.40;99.90
10247;DHT22;5168;47.854;7.944;2023-05-28T00:18:03;13.10;99.80
10247;DHT22;5168;47.854;7.944;2023-05-28T00:22:54;13.20;99.90
10247;DHT22;5168;47.854;7.944;2023-05-28T00:27:46;13.10;99.90
10247;DHT22;5168;47.854;7.944;2023-05-28T00:30:11;12.70;99.60
10247;DHT22;5168;47.854;7.944;2023-05-28T00:32:37;12.50;99.90
10247;DHT22;5168;47.854;7.944;2023-05-28T00:42:20;13.10;99.70
10247;DHT22;5168;47.854;7.944;2023-05-28T00:44:47;12.90;99.60
10247;DHT22;5168;47.854;7.944;2023-05-28T00:47:13;13.10;99.00
10247;DHT22;5168;47.854;7.944;2023-05-28T00:49:39;13.30;99.20
10247;DHT22;5168;47.854;7.944;2023-05-28T00:52:05;13.30;99.00
10247;DHT22;5168;47.854;7.944;2023-05-28T00:56:58;12.60;97.10
10247;DHT22;5168;47.854;7.944;2023-05-28T00:59:25;13.20;98.50
10247;DHT22;5168;47.854;7.944;2023-05-28T01:01:51;12.80;98.60
10247;DHT22;5168;47.854;7.944;2023-05-28T01:04:16;12.80;98.00
10247;DHT22;5168;47.854;7.944;2023-05-28T01:06:46;12.80;96.60
10247;DHT22;5168;47.854;7.944;2023-05-28T01:09:13;12.50;99.00
10247;DHT22;5168;47.854;7.944;2023-05-28T01:11:41;12.30;98.40
10247;DHT22;5168;47.854;7.944;2023-05-28T01:14:07;12.60;98.60
10247;DHT22;5168;47.854;7.944;2023-05-28T01:16:33;12.70;98.60
10247;DHT22;5168;47.854;7.944;2023-05-28T01:19:02;12.70;98.80
10247;DHT22;5168;47.854;7.944;2023-05-28T01:23:57;12.70;98.70
10247;DHT22;5168;47.854;7.944;2023-05-28T01:26:24;12.30;98.40
10247;DHT22;5168;47.854;7.944;2023-05-28T01:33:43;12.70;98.90
10247;DHT22;5168;47.854;7.944;2023-05-28T01:36:24;12.60;97.30
10247;DHT22;5168;47.854;7.944;2023-05-28T01:38:52;12.50;96.60
10247;DHT22;5168;47.854;7.944;2023-05-28T01:41:19;12.30;98.70
10247;DHT22;5168;47.854;7.944;2023-05-28T01:43:45;12.90;99.10
10247;DHT22;5168;47.854;7.944;2023-05-28T01:46:11;12.50;96.30
10247;DHT22;5168;47.854;7.944;2023-05-28T01:48:37;12.70;98.80
10247;DHT22;5168;47.854;7.944;2023-05-28T01:58:23;12.40;96.90
10247;DHT22;5168;47.854;7.944;2023-05-28T02:01:09;12.70;98.20
10247;DHT22;5168;47.854;7.944;2023-05-28T02:15:47;12.20;99.90
10247;DHT22;5168;47.854;7.944;2023-05-28T02:18:12;11.60;99.90
10247;DHT22;5168;47.854;7.944;2023-05-28T02:20:38;11.60;99.90
10247;DHT22;5168;47.854;7.944;2023-05-28T02:30:21;12.00;99.90
10247;DHT22;5168;47.854;7.944;2023-05-28T02:32:47;11.70;99.90
10247;DHT22;5168;47.854;7.944;2023-05-28T02:35:12;10.90;99.90
10247;DHT22;5168;47.854;7.944;2023-05-28T02:37:39;10.90;99.90
10247;DHT22;5168;47.854;7.944;2023-05-28T02:40:05;10.80;99.90
10247;DHT22;5168;47.854;7.944;2023-05-28T02:42:31;10.80;99.90
10247;DHT22;5168;47.854;7.944;2023-05-28T02:47:22;11.00;99.90
10247;DHT22;5168;47.854;7.944;2023-05-28T02:49:48;10.60;99.90
10247;DHT22;5168;47.854;7.944;2023-05-28T02:52:13;10.70;99.90
10247;DHT22;5168;47.854;7.944;2023-05-28T02:59:31;10.20;99.90
10247;DHT22;5168;47.854;7.944;2023-05-28T03:01:56;10.30;99.90
10247;DHT22;5168;47.854;7.944;2023-05-28T03:04:22;10.60;99.90
10247;DHT22;5168;47.854;7.944;2023-05-28T03:06:48;10.30;99.90
10247;DHT22;5168;47.854;7.944;2023-05-28T03:11:41;10.50;99.90
10247;DHT22;5168;47.854;7.944;2023-05-28T03:14:06;10.30;99.90
10247;DHT22;5168;47.854;7.944;2023-05-28T03:19:01;10.60;99.90
10247;DHT22;5168;47.854;7.944;2023-05-28T03:21:27;9.90;99.90
10247;DHT22;5168;47.854;7.944;2023-05-28T03:23:52;10.60;99.90
10247;DHT22;5168;47.854;7.944;2023-05-28T03:26:18;10.30;99.90
10247;DHT22;5168;47.854;7.944;2023-05-28T03:28:44;10.70;99.90
10247;DHT22;5168;47.854;7.944;2023-05-28T03:31:11;10.20;99.90
10247;DHT22;5168;47.854;7.944;2023-05-28T03:33:37;10.00;99.90
10247;DHT22;5168;47.854;7.944;2023-05-28T03:45:47;9.40;99.90
10247;DHT22;5168;47.854;7.944;2023-05-28T03:48:12;10.00;99.90
10247;DHT22;5168;47.854;7.944;2023-05-28T03:50:38;9.60;99.90
10247;DHT22;5168;47.854;7.944;2023-05-28T04:00:21;9.80;99.90
10247;DHT22;5168;47.854;7.944;2023-05-28T04:02:47;9.70;99.90
10247;DHT22;5168;47.854;7.944;2023-05-28T04:05:12;9.50;99.90
10247;DHT22;5168;47.854;7.944;2023-05-28T04:07:38;10.20;99.90
10247;DHT22;5168;47.854;7.944;2023-05-28T04:10:04;9.80;99.90
10247;DHT22;5168;47.854;7.944;2023-05-28T04:12:29;9.80;99.90
10247;DHT22;5168;47.854;7.944;2023-05-28T04:14:55;9.40;99.90
10247;DHT22;5168;47.854;7.944;2023-05-28T04:17:22;9.60;99.90
10247;DHT22;5168;47.854;7.944;2023-05-28T04:19:47;9.60;99.90
10247;DHT22;5168;47.854;7.944;2023-05-28T04:27:05;10.30;99.90
10247;DHT22;5168;47.854;7.944;2023-05-28T04:31:58;10.00;99.90
10247;DHT22;5168;47.854;7.944;2023-05-28T04:34:24;9.80;99.90
10247;DHT22;5168;47.854;7.944;2023-05-28T04:41:42;10.10;99.90
10247;DHT22;5168;47.854;7.944;2023-05-28T04:44:09;10.60;99.90
10247;DHT22;5168;47.854;7.944;2023-05-28T04:46:35;10.00;99.90
10247;DHT22;5168;47.854;7.944;2023-05-28T04:51:29;10.20;99.90
10247;DHT22;5168;47.854;7.944;2023-05-28T04:53:55;10.60;99.90
10247;DHT22;5168;47.854;7.944;2023-05-28T05:01:13;11.10;99.90
10247;DHT22;5168;47.854;7.944;2023-05-28T05:03:40;11.30;99.90
10247;DHT22;5168;47.854;7.944;2023-05-28T05:06:06;11.60;99.90
10247;DHT22;5168;47.854;7.944;2023-05-28T05:08:32;11.50;99.90
10247;DHT22;5168;47.854;7.944;2023-05-28T05:10:59;12.50;99.90
10247;DHT22;5168;47.854;7.944;2023-05-28T05:25:35;13.30;99.90
10247;DHT22;5168;47.854;7.944;2023-05-28T05:30:27;13.70;99.90
10247;DHT22;5168;47.854;7.944;2023-05-28T05:37:45;14.00;99.90
10247;DHT22;5168;47.854;7.944;2023-05-28T05:40:11;13.80;99.90
10247;DHT22;5168;47.854;7.944;2023-05-28T05:42:36;13.90;99.90
10247;DHT22;5168;47.854;7.944;2023-05-28T05:45:03;14.00;99.90
10247;DHT22;5168;47.854;7.944;2023-05-28T05:47:30;14.00;99.90
10247;DHT22;5168;47.854;7.944;2023-05-28T05:49:57;14.50;99.90
10247;DHT22;5168;47.854;7.944;2023-05-28T05:52:23;15.00;99.90
10247;DHT22;5168;47.854;7.944;2023-05-28T05:54:49;14.70;99.90
10247;DHT22;5168;47.854;7.944;2023-05-28T05:57:15;15.30;99.90
10247;DHT22;5168;47.854;7.944;2023-05-28T05:59:43;15.20;99.90
10247;DHT22;5168;47.854;7.944;2023-05-28T06:02:08;15.30;99.90
10247;DHT22;5168;47.854;7.944;2023-05-28T06:07:01;15.40;98.20
10247;DHT22;5168;47.854;7.944;2023-05-28T06:09:30;15.60;99.80
10247;DHT22;5168;47.854;7.944;2023-05-28T06:14:23;15.70;96.60
10247;DHT22;5168;47.854;7.944;2023-05-28T06:16:49;15.90;97.90
10247;DHT22;5168;47.854;7.944;2023-05-28T06:19:15;15.90;98.70
10247;DHT22;5168;47.854;7.944;2023-05-28T06:26:32;16.00;97.60
10247;DHT22;5168;47.854;7.944;2023-05-28T06:28:58;16.80;97.10
10247;DHT22;5168;47.854;7.944;2023-05-28T06:31:23;16.30;97.00
10247;DHT22;5168;47.854;7.944;2023-05-28T06:33:49;16.80;95.60
10247;DHT22;5168;47.854;7.944;2023-05-28T06:41:07;16.70;96.50
10247;DHT22;5168;47.854;7.944;2023-05-28T06:43:32;16.40;96.30
10247;DHT22;5168;47.854;7.944;2023-05-28T06:45:58;16.80;97.60
10247;DHT22;5168;47.854;7.944;2023-05-28T06:48:24;16.50;96.50
10247;DHT22;5168;47.854;7.944;2023-05-28T06:55:41;17.00;96.40
10247;DHT22;5168;47.854;7.944;2023-05-28T06:58:07;16.90;95.60
10247;DHT22;5168;47.854;7.944;2023-05-28T07:00:32;17.30;95.50
10247;DHT22;5168;47.854;7.944;2023-05-28T07:02:58;17.80;96.10
10247;DHT22;5168;47.854;7.944;2023-05-28T07:05:24;17.30;96.10
10247;DHT22;5168;47.854;7.944;2023-05-28T07:10:16;17.70;95.80
10247;DHT22;5168;47.854;7.944;2023-05-28T07:12:41;18.30;96.20
10247;DHT22;5168;47.854;7.944;2023-05-28T07:15:07;18.30;93.70
10247;DHT22;5168;47.854;7.944;2023-05-28T07:17:33;17.80;94.80
10247;DHT22;5168;47.854;7.944;2023-05-28T07:22:25;18.10;95.50
10247;DHT22;5168;47.854;7.944;2023-05-28T07:29:43;18.10;95.40
10247;DHT22;5168;47.854;7.944;2023-05-28T07:32:09;18.50;94.60
10247;DHT22;5168;47.854;7.944;2023-05-28T07:34:34;19.20;93.90
10247;DHT22;5168;47.854;7.944;2023-05-28T07:37:00;18.70;94.70
10247;DHT22;5168;47.854;7.944;2023-05-28T07:39:26;18.80;93.00
10247;DHT22;5168;47.854;7.944;2023-05-28T07:41:51;19.20;92.00
10247;DHT22;5168;47.854;7.944;2023-05-28T07:44:17;18.90;91.50
10247;DHT22;5168;47.854;7.944;2023-05-28T07:46:43;19.40;91.00
10247;DHT22;5168;47.854;7.944;2023-05-28T07:49:08;19.60;91.10
10247;DHT22;5168;47.854;7.944;2023-05-28T07:51:34;20.10;91.70
10247;DHT22;5168;47.854;7.944;2023-05-28T07:53:59;19.30;90.50
10247;DHT22;5168;47.854;7.944;2023-05-28T07:56:25;20.10;91.40
10247;DHT22;5168;47.854;7.944;2023-05-28T07:58:51;20.20;90.70
10247;DHT22;5168;47.854;7.944;2023-05-28T08:01:17;19.90;91.00
10247;DHT22;5168;47.854;7.944;2023-05-28T08:03:43;20.70;87.40
10247;DHT22;5168;47.854;7.944;2023-05-28T08:06:08;20.50;87.60
10247;DHT22;5168;47.854;7.944;2023-05-28T08:08:34;19.90;89.10
10247;DHT22;5168;47.854;7.944;2023-05-28T08:11:00;20.20;89.90
10247;DHT22;5168;47.854;7.944;2023-05-28T08:13:26;20.10;89.60
10247;DHT22;5168;47.854;7.944;2023-05-28T08:15:51;20.40;86.10
10247;DHT22;5168;47.854;7.944;2023-05-28T08:18:17;20.80;86.90
10247;DHT22;5168;47.854;7.944;2023-05-28T08:20:43;21.10;86.90
10247;DHT22;5168;47.854;7.944;2023-05-28T08:23:08;20.80;83.90
10247;DHT22;5168;47.854;7.944;2023-05-28T08:28:00;21.50;84.80
10247;DHT22;5168;47.854;7.944;2023-05-28T08:30:26;21.20;81.30
10247;DHT22;5168;47.854;7.944;2023-05-28T08:32:52;22.10;83.50
10247;DHT22;5168;47.854;7.944;2023-05-28T08:35:17;22.00;82.30
10247;DHT22;5168;47.854;7.944;2023-05-28T08:42:36;21.80;79.40
10247;DHT22;5168;47.854;7.944;2023-05-28T08:45:03;22.40;82.40
10247;DHT22;5168;47.854;7.944;2023-05-28T08:47:32;22.50;80.40
10247;DHT22;5168;47.854;7.944;2023-05-28T08:49:59;22.90;82.80
10247;DHT22;5168;47.854;7.944;2023-05-28T08:52:28;22.60;85.00
10247;DHT22;5168;47.854;7.944;2023-05-28T08:54:56;22.20;76.90
10247;DHT22;5168;47.854;7.944;2023-05-28T08:57:22;22.30;81.40
10247;DHT22;5168;47.854;7.944;2023-05-28T08:59:48;23.20;80.70
10247;DHT22;5168;47.854;7.944;2023-05-28T09:02:14;22.90;78.10
10247;DHT22;5168;47.854;7.944;2023-05-28T09:04:39;23.00;79.10
10247;DHT22;5168;47.854;7.944;2023-05-28T09:07:05;22.40;80.00
10247;DHT22;5168;47.854;7.944;2023-05-28T09:09:31;22.70;77.80
10247;DHT22;5168;47.854;7.944;2023-05-28T09:12:13;22.70;77.80
10247;DHT22;5168;47.854;7.944;2023-05-28T09:14:40;23.10;81.30
10247;DHT22;5168;47.854;7.944;2023-05-28T09:17:07;23.40;81.10
10247;DHT22;5168;47.854;7.944;2023-05-28T09:19:36;23.60;79.20
10247;DHT22;5168;47.854;7.944;2023-05-28T09:22:02;23.20;75.40
10247;DHT22;5168;47.854;7.944;2023-05-28T09:24:29;23.70;76.80
10247;DHT22;5168;47.854;7.944;2023-05-28T09:26:57;23.10;74.60
10247;DHT22;5168;47.854;7.944;2023-05-28T09:29:24;23.00;76.00
10247;DHT22;5168;47.854;7.944;2023-05-28T09:32:01;23.40;77.90
10247;DHT22;5168;47.854;7.944;2023-05-28T09:34:27;23.80;75.90
10247;DHT22;5168;47.854;7.944;2023-05-28T09:36:58;23.80;74.20
10247;DHT22;5168;47.854;7.944;2023-05-28T09:39:24;23.80;75.80
10247;DHT22;5168;47.854;7.944;2023-05-28T09:42:01;23.70;73.00
10247;DHT22;5168;47.854;7.944;2023-05-28T09:44:30;23.90;72.80
10247;DHT22;5168;47.854;7.944;2023-05-28T09:46:56;23.40;75.40
10247;DHT22;5168;47.854;7.944;2023-05-28T09:51:51;23.60;73.30
10247;DHT22;5168;47.854;7.944;2023-05-28T09:54:17;23.40;73.90
10247;DHT22;5168;47.854;7.944;2023-05-28T09:56:47;23.70;76.50
10247;DHT22;5168;47.854;7.944;2023-05-28T09:59:18;23.80;78.30
10247;DHT22;5168;47.854;7.944;2023-05-28T10:01:53;24.30;78.50
10247;DHT22;5168;47.854;7.944;2023-05-28T10:04:23;24.50;74.90
10247;DHT22;5168;47.854;7.944;2023-05-28T10:06:52;24.30;76.00
10247;DHT22;5168;47.854;7.944;2023-05-28T10:09:18;24.00;70.20
10247;DHT22;5168;47.854;7.944;2023-05-28T10:12:00;24.00;72.10
10247;DHT22;5168;47.854;7.944;2023-05-28T10:14:28;24.50;73.00
10247;DHT22;5168;47.854;7.944;2023-05-28T10:16:55;24.60;73.00
10247;DHT22;5168;47.854;7.944;2023-05-28T10:19:21;24.40;71.70
10247;DHT22;5168;47.854;7.944;2023-05-28T10:21:47;24.60;69.90
10247;DHT22;5168;47.854;7.944;2023-05-28T10:24:13;24.50;68.30
10247;DHT22;5168;47.854;7.944;2023-05-28T10:26:39;25.20;69.60
10247;DHT22;5168;47.854;7.944;2023-05-28T10:29:08;25.30;70.30
10247;DHT22;5168;47.854;7.944;2023-05-28T10:31:33;25.30;70.60
10247;DHT22;5168;47.854;7.944;2023-05-28T10:33:59;25.10;70.70
10247;DHT22;5168;47.854;7.944;2023-05-28T10:36:25;25.80;74.80
10247;DHT22;5168;47.854;7.944;2023-05-28T10:41:22;25.40;74.40
10247;DHT22;5168;47.854;7.944;2023-05-28T10:43:49;25.80;70.80
10247;DHT22;5168;47.854;7.944;2023-05-28T10:57:17;25.20;69.70
10247;DHT22;5168;47.854;7.944;2023-05-28T10:59:49;25.00;69.50
10247;DHT22;5168;47.854;7.944;2023-05-28T11:02:24;24.90;68.60
10247;DHT22;5168;47.854;7.944;2023-05-28T11:05:00;25.30;70.40
10247;DHT22;5168;47.854;7.944;2023-05-28T11:07:34;25.20;70.50
10247;DHT22;5168;47.854;7.944;2023-05-28T11:10:01;24.80;69.80
10247;DHT22;5168;47.854;7.944;2023-05-28T11:12:29;25.10;68.30
10247;DHT22;5168;47.854;7.944;2023-05-28T11:14:55;25.30;71.00
10247;DHT22;5168;47.854;7.944;2023-05-28T11:17:21;24.90;76.20
10247;DHT22;5168;47.854;7.944;2023-05-28T11:19:48;25.90;71.80
10247;DHT22;5168;47.854;7.944;2023-05-28T11:22:16;26.10;71.40
10247;DHT22;5168;47.854;7.944;2023-05-28T11:25:02;26.00;71.40
10247;DHT22;5168;47.854;7.944;2023-05-28T11:27:30;26.60;71.50
10247;DHT22;5168;47.854;7.944;2023-05-28T11:29:58;26.80;68.90
10247;DHT22;5168;47.854;7.944;2023-05-28T11:32:26;26.80;71.60
10247;DHT22;5168;47.854;7.944;2023-05-28T11:34:53;27.60;70.10
10247;DHT22;5168;47.854;7.944;2023-05-28T11:37:26;27.40;71.60
10247;DHT22;5168;47.854;7.944;2023-05-28T11:39:54;27.20;67.50
10247;DHT22;5168;47.854;7.944;2023-05-28T11:42:20;27.30;67.30
10247;DHT22;5168;47.854;7.944;2023-05-28T11:44:47;27.50;63.10
10247;DHT22;5168;47.854;7.944;2023-05-28T11:47:13;27.40;64.50
10247;DHT22;5168;47.854;7.944;2023-05-28T11:49:39;27.40;69.20
10247;DHT22;5168;47.854;7.944;2023-05-28T11:52:05;27.40;61.20
10247;DHT22;5168;47.854;7.944;2023-05-28T11:54:30;27.20;62.10
10247;DHT22;5168;47.854;7.944;2023-05-28T11:56:56;27.00;63.00
10247;DHT22;5168;47.854;7.944;2023-05-28T11:59:22;26.90;64.80
10247;DHT22;5168;47.854;7.944;2023-05-28T12:01:51;26.80;62.10
10247;DHT22;5168;47.854;7.944;2023-05-28T12:04:22;27.20;68.50
10247;DHT22;5168;47.854;7.944;2023-05-28T12:06:54;26.90;68.10
10247;DHT22;5168;47.854;7.944;2023-05-28T12:09:20;24.30;61.10
10247;DHT22;5168;47.854;7.944;2023-05-28T12:12:01;26.40;65.50
10247;DHT22;5168;47.854;7.944;2023-05-28T12:14:29;26.60;61.00
10247;DHT22;5168;47.854;7.944;2023-05-28T12:17:06;26.20;65.90
10247;DHT22;5168;47.854;7.944;2023-05-28T12:19:34;26.50;63.80
10247;DHT22;5168;47.854;7.944;2023-05-28T12:22:01;26.30;67.60
10247;DHT22;5168;47.854;7.944;2023-05-28T12:24:29;26.30;69.10
10247;DHT22;5168;47.854;7.944;2023-05-28T12:26:55;26.50;65.10
10247;DHT22;5168;47.854;7.944;2023-05-28T12:29:21;26.60;66.90
10247;DHT22;5168;47.854;7.944;2023-05-28T12:31:47;26.40;71.20
10247;DHT22;5168;47.854;7.944;2023-05-28T12:34:12;27.40;66.30
10247;DHT22;5168;47.854;7.944;2023-05-28T12:36:38;26.70;65.90
10247;DHT22;5168;47.854;7.944;2023-05-28T12:39:03;26.70;65.50
10247;DHT22;5168;47.854;7.944;2023-05-28T12:41:32;26.80;65.90
10247;DHT22;5168;47.854;7.944;2023-05-28T12:43:57;26.80;71.80
10247;DHT22;5168;47.854;7.944;2023-05-28T12:46:23;26.80;71.00
10247;DHT22;5168;47.854;7.944;2023-05-28T12:48:48;26.80;72.90
10247;DHT22;5168;47.854;7.944;2023-05-28T12:51:15;26.80;73.00
10247;DHT22;5168;47.854;7.944;2023-05-28T12:53:41;27.30;75.00
10247;DHT22;5168;47.854;7.944;2023-05-28T12:56:06;27.10;73.00
10247;DHT22;5168;47.854;7.944;2023-05-28T12:58:32;26.90;73.20
10247;DHT22;5168;47.854;7.944;2023-05-28T13:00:57;26.70;72.50
10247;DHT22;5168;47.854;7.944;2023-05-28T13:03:24;25.70;72.70
10247;DHT22;5168;47.854;7.944;2023-05-28T13:05:50;26.40;72.90
10247;DHT22;5168;47.854;7.944;2023-05-28T13:08:15;26.30;73.90
10247;DHT22;5168;47.854;7.944;2023-05-28T13:10:41;26.40;75.40
10247;DHT22;5168;47.854;7.944;2023-05-28T13:13:06;26.30;76.00
10247;DHT22;5168;47.854;7.944;2023-05-28T13:15:32;25.20;75.50
10247;DHT22;5168;47.854;7.944;2023-05-28T13:17:57;25.30;76.10
10247;DHT22;5168;47.854;7.944;2023-05-28T13:20:23;24.90;76.90
10247;DHT22;5168;47.854;7.944;2023-05-28T13:22:49;25.60;78.60
10247;DHT22;5168;47.854;7.944;2023-05-28T13:25:14;26.20;77.60
10247;DHT22;5168;47.854;7.944;2023-05-28T13:27:40;26.30;77.70
10247;DHT22;5168;47.854;7.944;2023-05-28T13:30:06;25.70;77.90
10247;DHT22;5168;47.854;7.944;2023-05-28T13:32:33;26.10;77.00
10247;DHT22;5168;47.854;7.944;2023-05-28T13:34:58;25.90;77.20
10247;DHT22;5168;47.854;7.944;2023-05-28T13:37:24;26.30;78.50
10247;DHT22;5168;47.854;7.944;2023-05-28T13:39:51;26.20;75.60
10247;DHT22;5168;47.854;7.944;2023-05-28T13:42:17;26.10;75.50
10247;DHT22;5168;47.854;7.944;2023-05-28T13:44:47;26.40;76.90
10247;DHT22;5168;47.854;7.944;2023-05-28T13:47:13;26.10;76.20
10247;DHT22;5168;47.854;7.944;2023-05-28T13:49:38;26.40;77.40
10247;DHT22;5168;47.854;7.944;2023-05-28T13:52:04;26.40;78.40
10247;DHT22;5168;47.854;7.944;2023-05-28T13:56:55;26.60;75.20
10247;DHT22;5168;47.854;7.944;2023-05-28T13:59:21;26.40;74.30
10247;DHT22;5168;47.854;7.944;2023-05-28T14:01:46;27.30;74.90
10247;DHT22;5168;47.854;7.944;2023-05-28T14:04:12;27.40;74.60
10247;DHT22;5168;47.854;7.944;2023-05-28T14:06:37;26.90;75.40
10247;DHT22;5168;47.854;7.944;2023-05-28T14:09:03;26.80;75.70
10247;DHT22;5168;47.854;7.944;2023-05-28T14:11:30;26.50;74.60
10247;DHT22;5168;47.854;7.944;2023-05-28T14:13:56;26.70;74.90
10247;DHT22;5168;47.854;7.944;2023-05-28T14:16:21;26.90;75.40
10247;DHT22;5168;47.854;7.944;2023-05-28T14:18:47;26.50;74.00
10247;DHT22;5168;47.854;7.944;2023-05-28T14:21:12;26.80;75.20
10247;DHT22;5168;47.854;7.944;2023-05-28T14:23:38;26.40;76.00
10247;DHT22;5168;47.854;7.944;2023-05-28T14:26:03;26.50;74.40
10247;DHT22;5168;47.854;7.944;2023-05-28T14:28:29;26.60;74.40
10247;DHT22;5168;47.854;7.944;2023-05-28T14:30:55;26.60;74.40
10247;DHT22;5168;47.854;7.944;2023-05-28T14:33:21;26.40;74.10
10247;DHT22;5168;47.854;7.944;2023-05-28T14:35:46;26.20;75.90
10247;DHT22;5168;47.854;7.944;2023-05-28T14:38:12;26.70;73.00
10247;DHT22;5168;47.854;7.944;2023-05-28T14:40:37;26.20;72.60
10247;DHT22;5168;47.854;7.944;2023-05-28T14:43:03;26.00;73.10
10247;DHT22;5168;47.854;7.944;2023-05-28T14:45:28;26.70;74.10
10247;DHT22;5168;47.854;7.944;2023-05-28T14:47:54;26.20;75.00
10247;DHT22;5168;47.854;7.944;2023-05-28T14:50:20;26.80;74.70
10247;DHT22;5168;47.854;7.944;2023-05-28T14:52:45;26.40;75.80
10247;DHT22;5168;47.854;7.944;2023-05-28T14:55:11;26.50;75.70
10247;DHT22;5168;47.854;7.944;2023-05-28T15:00:07;26.10;76.00
10247;DHT22;5168;47.854;7.944;2023-05-28T15:02:36;26.10;75.10
10247;DHT22;5168;47.854;7.944;2023-05-28T15:05:02;25.80;73.20
10247;DHT22;5168;47.854;7.944;2023-05-28T15:07:29;25.30;74.50
10247;DHT22;5168;47.854;7.944;2023-05-28T15:09:55;25.20;73.10
10247;DHT22;5168;47.854;7.944;2023-05-28T15:12:21;26.10;74.10
10247;DHT22;5168;47.854;7.944;2023-05-28T15:14:46;25.10;75.30
10247;DHT22;5168;47.854;7.944;2023-05-28T15:17:12;25.60;75.40
10247;DHT22;5168;47.854;7.944;2023-05-28T15:19:37;24.90;75.00
10247;DHT22;5168;47.854;7.944;2023-05-28T15:22:03;25.10;73.30
10247;DHT22;5168;47.854;7.944;2023-05-28T15:24:29;25.40;74.70
10247;DHT22;5168;47.854;7.944;2023-05-28T15:26:56;24.80;73.90
10247;DHT22;5168;47.854;7.944;2023-05-28T15:29:22;24.80;74.40
10247;DHT22;5168;47.854;7.944;2023-05-28T15:31:48;25.10;74.60
10247;DHT22;5168;47.854;7.944;2023-05-28T15:34:16;25.10;75.50
10247;DHT22;5168;47.854;7.944;2023-05-28T15:36:42;24.90;74.60
10247;DHT22;5168;47.854;7.944;2023-05-28T15:39:08;25.20;74.60
10247;DHT22;5168;47.854;7.944;2023-05-28T15:41:35;24.90;74.50
10247;DHT22;5168;47.854;7.944;2023-05-28T15:44:02;24.40;74.60
10247;DHT22;5168;47.854;7.944;2023-05-28T15:46:28;24.90;74.30
10247;DHT22;5168;47.854;7.944;2023-05-28T15:48:54;24.60;74.80
10247;DHT22;5168;47.854;7.944;2023-05-28T15:51:20;24.00;75.20
10247;DHT22;5168;47.854;7.944;2023-05-28T15:53:45;24.20;74.80
10247;DHT22;5168;47.854;7.944;2023-05-28T15:56:11;24.00;75.80
10247;DHT22;5168;47.854;7.944;2023-05-28T15:58:37;23.70;76.00
10247;DHT22;5168;47.854;7.944;2023-05-28T16:01:03;23.90;74.20
10247;DHT22;5168;47.854;7.944;2023-05-28T16:03:28;23.60;75.30
10247;DHT22;5168;47.854;7.944;2023-05-28T16:05:54;23.40;76.00
10247;DHT22;5168;47.854;7.944;2023-05-28T16:08:20;23.80;76.70
10247;DHT22;5168;47.854;7.944;2023-05-28T16:10:46;23.50;75.80
10247;DHT22;5168;47.854;7.944;2023-05-28T16:13:13;23.40;75.40
10247;DHT22;5168;47.854;7.944;2023-05-28T16:15:39;22.70;75.30
10247;DHT22;5168;47.854;7.944;2023-05-28T16:18:06;23.20;76.50
10247;DHT22;5168;47.854;7.944;2023-05-28T16:22:59;22.90;76.40
10247;DHT22;5168;47.854;7.944;2023-05-28T16:25:26;22.90;78.50
10247;DHT22;5168;47.854;7.944;2023-05-28T16:27:51;22.10;77.90
10247;DHT22;5168;47.854;7.944;2023-05-28T16:30:20;22.10;77.50
10247;DHT22;5168;47.854;7.944;2023-05-28T16:32:46;21.90;76.60
10247;DHT22;5168;47.854;7.944;2023-05-28T16:35:12;22.80;77.50
10247;DHT22;5168;47.854;7.944;2023-05-28T16:37:38;22.40;77.00
10247;DHT22;5168;47.854;7.944;2023-05-28T16:40:04;21.80;76.90
10247;DHT22;5168;47.854;7.944;2023-05-28T16:42:35;21.90;76.10
10247;DHT22;5168;47.854;7.944;2023-05-28T16:45:03;21.40;75.30
10247;DHT22;5168;47.854;7.944;2023-05-28T16:47:29;21.20;75.00
10247;DHT22;5168;47.854;7.944;2023-05-28T16:50:00;21.20;75.80
10247;DHT22;5168;47.854;7.944;2023-05-28T16:52:25;20.90;76.90
10247;DHT22;5168;47.854;7.944;2023-05-28T16:54:53;21.40;77.70
10247;DHT22;5168;47.854;7.944;2023-05-28T16:57:21;20.90;77.00
10247;DHT22;5168;47.854;7.944;2023-05-28T16:59:47;21.20;76.40
10247;DHT22;5168;47.854;7.944;2023-05-28T17:02:13;20.40;76.10
10247;DHT22;5168;47.854;7.944;2023-05-28T17:07:04;20.80;78.60
10247;DHT22;5168;47.854;7.944;2023-05-28T17:09:33;20.20;77.50
10247;DHT22;5168;47.854;7.944;2023-05-28T17:11:59;20.40;78.40
10247;DHT22;5168;47.854;7.944;2023-05-28T17:16:50;19.90;79.40
10247;DHT22;5168;47.854;7.944;2023-05-28T17:19:16;19.80;80.40
10247;DHT22;5168;47.854;7.944;2023-05-28T17:21:45;19.50;77.80
10247;DHT22;5168;47.854;7.944;2023-05-28T17:24:13;19.80;78.90
10247;DHT22;5168;47.854;7.944;2023-05-28T17:26:39;20.00;79.60
10247;DHT22;5168;47.854;7.944;2023-05-28T17:29:05;19.80;79.60
10247;DHT22;5168;47.854;7.944;2023-05-28T17:31:31;19.30;79.60
10247;DHT22;5168;47.854;7.944;2023-05-28T17:33:57;19.90;81.40
10247;DHT22;5168;47.854;7.944;2023-05-28T17:36:23;19.00;79.60
10247;DHT22;5168;47.854;7.944;2023-05-28T17:41:15;18.90;80.80
10247;DHT22;5168;47.854;7.944;2023-05-28T17:43:41;18.80;81.40
10247;DHT22;5168;47.854;7.944;2023-05-28T17:48:32;19.20;80.80
10247;DHT22;5168;47.854;7.944;2023-05-28T17:50:58;19.40;81.40
10247;DHT22;5168;47.854;7.944;2023-05-28T17:53:24;18.70;81.20
10247;DHT22;5168;47.854;7.944;2023-05-28T17:55:52;18.00;80.90
10247;DHT22;5168;47.854;7.944;2023-05-28T17:58:19;18.10;81.00
10247;DHT22;5168;47.854;7.944;2023-05-28T18:05:37;18.40;82.50
10247;DHT22;5168;47.854;7.944;2023-05-28T18:08:02;18.10;82.50
10247;DHT22;5168;47.854;7.944;2023-05-28T18:10:28;18.40;82.60
10247;DHT22;5168;47.854;7.944;2023-05-28T18:15:21;17.70;79.10
10247;DHT22;5168;47.854;7.944;2023-05-28T18:17:49;17.40;81.80
10247;DHT22;5168;47.854;7.944;2023-05-28T18:20:15;17.90;82.80
10247;DHT22;5168;47.854;7.944;2023-05-28T18:25:07;17.70;82.60
10247;DHT22;5168;47.854;7.944;2023-05-28T18:27:32;17.10;81.40
10247;DHT22;5168;47.854;7.944;2023-05-28T18:29:58;17.30;84.60
10247;DHT22;5168;47.854;7.944;2023-05-28T18:32:24;16.90;84.70
10247;DHT22;5168;47.854;7.944;2023-05-28T18:34:49;16.80;84.50
10247;DHT22;5168;47.854;7.944;2023-05-28T18:44:34;16.50;81.10
10247;DHT22;5168;47.854;7.944;2023-05-28T18:47:02;16.70;81.70
10247;DHT22;5168;47.854;7.944;2023-05-28T18:51:55;16.10;81.40
10247;DHT22;5168;47.854;7.944;2023-05-28T18:54:20;16.90;82.00
10247;DHT22;5168;47.854;7.944;2023-05-28T18:59:13;16.60;82.10
10247;DHT22;5168;47.854;7.944;2023-05-28T19:01:38;15.90;80.30
10247;DHT22;5168;47.854;7.944;2023-05-28T19:04:05;16.50;83.10
10247;DHT22;5168;47.854;7.944;2023-05-28T19:06:31;15.90;81.90
10247;DHT22;5168;47.854;7.944;2023-05-28T19:08:57;16.10;82.60
10247;DHT22;5168;47.854;7.944;2023-05-28T19:11:23;16.40;83.20
10247;DHT22;5168;47.854;7.944;2023-05-28T19:16:14;15.80;84.10
10247;DHT22;5168;47.854;7.944;2023-05-28T19:18:40;15.80;82.80